animemf.org alexa rank chart, animemf.org alexa rank daily changes

animemf.org alexa rank chart, animemf.org alexa rank daily changes

animemf.org
Actual rank:
39 979

RANK HISTORY

Date Rank Diff
2018/11/14 39 979 +13 365
2018/11/13 26 614 -4 706
2018/11/12 31 320 -11 508
2018/11/11 42 828 -2 681
2018/11/10 45 509 -4 214
2018/11/09 49 723 +6 364
2018/11/08 43 359 +2 695
2018/11/07 40 664 +13 349
2018/11/06 27 315 -18 577
2018/11/05 45 892 +802
2018/11/04 45 090 -1 525
2018/11/03 46 615 -9 515
2018/11/02 56 130 +11 959
2018/11/01 44 171 -4 189
2018/10/31 48 360 +16 210
2018/10/30 32 150 -9 941
2018/10/29 42 091 -11 621
2018/10/28 53 712 -7 203
2018/10/27 60 915 +15 638
2018/10/26 45 277 -11 487
2018/10/25 56 764 +26 261
2018/10/24 30 503 -13 069
2018/10/23 43 572 -267
2018/10/22 43 839 -5 162
2018/10/21 49 001 +16 848
2018/10/20 32 153 -35 371
2018/10/19 67 524 +22 276
2018/10/18 45 248 -12 016
2018/10/17 57 264 +23 593
2018/10/16 33 671 +15
2018/10/15 33 656 -10 652
2018/10/14 44 308 +3 027
2018/10/13 41 281 -1 107
2018/10/12 42 388 -14 125
2018/10/11 56 513 +18 883
2018/10/10 37 630 +3 607
2018/10/09 34 023 -5 476
2018/10/08 39 499 +9 670
2018/10/07 29 829 -18 456
2018/10/06 48 285 +6 048
2018/10/05 42 237 -6 783
2018/10/04 49 020 +17 593
2018/10/03 31 427 -8 975
2018/10/02 40 402 +3 607
2018/10/01 36 795 -6 909
2018/09/30 43 704 -5 698
2018/09/29 49 402 +90
2018/09/28 49 312 +503
2018/09/27 48 809 +15 005
2018/09/26 33 804 -3 288
2018/09/25 37 092 -6 885
2018/09/24 43 977 +3 495
2018/09/23 40 482 -75
2018/09/22 40 557 +5 415
2018/09/21 35 142 -58
2018/09/20 35 200 -16 508
2018/09/19 51 708 +29 976
2018/09/18 21 732 -14 570
2018/09/17 36 302 -8 134
2018/09/16 44 436 +7 497
2018/09/15 36 939

WIDGET FOR YOUR SITE

DOMAINS WITH THE NEAREST RANK

Domain Rank
postnauka.ru 39 974
sandraandwoo.com 39 975
lutrija.hr 39 976
speed-vpn.com 39 977
kek.jp 39 978
animemf.org 39 979
naked.com 39 980
hdmovies4arab.com 39 981
crash.net 39 982
speedtypingonline.com 39 983
jamesallen.com 39 984

DOMAINS WITH THE NEAREST RANK BY TLD .org

Domain Rank
espaebook.org 39 891
al-islam.org 39 912
scrumalliance.org 39 926
bibalex.org 39 949
biodiversitylibrary.org 39 968
animemf.org 39 979
thirteen.org 39 999
fivefilters.org 40 050
englishexercises.org 40 056
jci.org 40 104
9xbuddy.org 40 130